createdAt,value
2019-03-24T00:02:00.074Z,28.60
2019-03-24T00:04:28.603Z,28.38
2019-03-24T00:06:57.069Z,27.85
2019-03-24T00:09:25.547Z,28.10
2019-03-24T00:11:54.004Z,27.90
2019-03-24T00:14:22.459Z,25.72
2019-03-24T00:16:51.016Z,27.75
2019-03-24T00:19:19.522Z,27.37
2019-03-24T00:21:48.256Z,26.52
2019-03-24T00:24:16.681Z,28.52
2019-03-24T00:26:45.102Z,28.47
2019-03-24T00:29:13.575Z,29.37
2019-03-24T00:31:41.994Z,26.77
2019-03-24T00:34:10.449Z,27.07
2019-03-24T00:36:38.929Z,27.85
2019-03-24T00:39:07.719Z,24.87
2019-03-24T00:41:36.151Z,27.98
2019-03-24T00:44:04.721Z,28.75
2019-03-24T00:46:33.255Z,25.92
2019-03-24T00:49:01.685Z,26.62
2019-03-24T00:51:30.195Z,26.65
2019-03-24T00:53:58.626Z,25.02
2019-03-24T00:56:27.148Z,27.30
2019-03-24T00:58:55.999Z,25.57
2019-03-24T01:01:24.512Z,25.70
2019-03-24T01:03:52.931Z,26.10
2019-03-24T01:06:21.702Z,26.42
2019-03-24T01:08:50.316Z,26.45
2019-03-24T01:11:18.840Z,24.35
2019-03-24T01:13:48.303Z,26.90
2019-03-24T01:16:16.759Z,25.97
2019-03-24T01:18:45.252Z,27.55
2019-03-24T01:21:13.794Z,26.60
2019-03-24T01:23:42.289Z,25.55
2019-03-24T01:26:10.720Z,26.35
2019-03-24T01:28:39.176Z,24.18
2019-03-24T01:31:07.667Z,24.63
2019-03-24T01:33:36.121Z,25.57
2019-03-24T01:36:04.625Z,26.15
2019-03-24T01:38:33.051Z,24.10
2019-03-24T01:41:01.565Z,27.73
2019-03-24T01:43:30.220Z,25.65
2019-03-24T01:45:59.048Z,27.00
2019-03-24T01:48:27.571Z,28.47
2019-03-24T01:50:56.060Z,26.55
2019-03-24T01:53:24.538Z,26.87
2019-03-24T01:55:53.195Z,26.87
2019-03-24T01:58:21.620Z,25.72
2019-03-24T02:00:50.388Z,26.25
2019-03-24T02:03:18.860Z,25.50
2019-03-24T02:05:47.283Z,27.13
2019-03-24T02:08:15.750Z,26.52
2019-03-24T02:10:44.244Z,26.62
2019-03-24T02:13:12.706Z,26.75
2019-03-24T02:15:41.191Z,26.02
2019-03-24T02:18:09.853Z,25.55
2019-03-24T02:20:38.317Z,27.37
2019-03-24T02:23:06.791Z,28.25
2019-03-24T02:25:35.239Z,26.35
2019-03-24T02:28:03.793Z,26.90
2019-03-24T02:30:32.321Z,26.90
2019-03-24T02:33:00.835Z,26.10
2019-03-24T02:35:29.256Z,27.80
2019-03-24T02:37:57.945Z,26.82
2019-03-24T02:40:26.375Z,28.57
2019-03-24T02:42:54.821Z,27.37
2019-03-24T02:45:23.252Z,27.15
2019-03-24T02:47:51.762Z,27.82
2019-03-24T02:50:20.291Z,26.93
2019-03-24T02:52:48.780Z,26.87
2019-03-24T02:55:17.254Z,26.65
2019-03-24T02:57:45.764Z,25.80
2019-03-24T03:00:15.135Z,27.37
2019-03-24T03:02:43.574Z,27.75
2019-03-24T03:05:13.162Z,26.00
2019-03-24T03:07:41.654Z,25.62
2019-03-24T03:10:10.689Z,26.45
2019-03-24T03:12:39.284Z,26.60
2019-03-24T03:15:08.719Z,26.90
2019-03-24T03:17:37.281Z,25.40
2019-03-24T03:20:07.526Z,25.82
2019-03-24T03:22:36.009Z,25.97
2019-03-24T03:25:09.330Z,26.10
2019-03-24T03:27:37.756Z,28.25
2019-03-24T03:30:09.922Z,27.45
2019-03-24T03:32:38.480Z,24.82
2019-03-24T03:35:08.018Z,27.98
2019-03-24T03:37:36.697Z,25.90
2019-03-24T03:40:07.289Z,25.55
2019-03-24T03:42:36.258Z,25.45
2019-03-24T03:45:05.919Z,26.52
2019-03-24T03:47:34.374Z,26.60
2019-03-24T03:50:02.848Z,27.50
2019-03-24T03:52:31.300Z,26.65
2019-03-24T03:54:59.723Z,25.92
2019-03-24T03:57:28.237Z,26.93
2019-03-24T03:59:56.687Z,26.82
2019-03-24T04:02:25.186Z,27.62
2019-03-24T04:04:53.954Z,27.42
2019-03-24T04:07:22.390Z,28.05
2019-03-24T04:09:50.832Z,27.15
2019-03-24T04:12:19.495Z,28.20
2019-03-24T04:14:47.971Z,26.30
2019-03-24T04:17:16.433Z,27.00
2019-03-24T04:19:44.931Z,26.77
2019-03-24T04:22:13.341Z,27.48
2019-03-24T04:24:41.813Z,26.87
2019-03-24T04:27:10.234Z,28.80
2019-03-24T04:29:38.665Z,28.30
2019-03-24T04:32:07.180Z,29.02
2019-03-24T04:34:35.644Z,28.92
2019-03-24T04:37:04.071Z,27.62
2019-03-24T04:39:32.795Z,27.82
2019-03-24T04:42:01.219Z,30.48
2019-03-24T04:44:29.640Z,27.87
2019-03-24T04:46:58.101Z,28.75
2019-03-24T04:49:26.533Z,27.95
2019-03-24T04:51:54.985Z,28.45
2019-03-24T04:54:23.409Z,29.70
2019-03-24T04:56:51.875Z,30.85
2019-03-24T04:59:20.300Z,29.87
2019-03-24T05:01:48.788Z,29.02
2019-03-24T05:04:17.331Z,30.62
2019-03-24T05:06:45.896Z,28.83
2019-03-24T05:09:15.473Z,30.17
2019-03-24T05:11:43.949Z,27.93
2019-03-24T05:14:12.424Z,29.87
2019-03-24T05:16:40.849Z,29.70
2019-03-24T05:19:10.969Z,30.05
2019-03-24T05:21:39.405Z,28.10
2019-03-24T05:24:07.842Z,31.23
2019-03-24T05:26:36.285Z,31.12
2019-03-24T05:29:04.877Z,30.48
2019-03-24T05:31:33.326Z,30.60
2019-03-24T05:34:01.821Z,31.90
2019-03-24T05:36:30.274Z,31.48
2019-03-24T05:38:58.697Z,31.55
2019-03-24T05:41:27.187Z,29.98
2019-03-24T05:43:55.713Z,32.17
2019-03-24T05:46:24.147Z,29.30
2019-03-24T05:48:52.580Z,29.32
2019-03-24T05:51:21.044Z,28.23
2019-03-24T05:53:49.462Z,30.30
2019-03-24T05:56:17.942Z,29.35
2019-03-24T05:58:46.464Z,29.12
2019-03-24T06:01:14.887Z,27.32
2019-03-24T06:03:43.427Z,27.45
2019-03-24T06:06:11.890Z,29.45
2019-03-24T06:08:40.330Z,27.48
2019-03-24T06:11:08.765Z,25.68
2019-03-24T06:13:37.271Z,25.45
2019-03-24T06:16:05.870Z,26.70
2019-03-24T06:18:34.315Z,26.90
2019-03-24T06:21:02.760Z,27.80
2019-03-24T06:23:31.184Z,25.15
2019-03-24T06:25:59.663Z,28.23
2019-03-24T06:28:28.089Z,28.40
2019-03-24T06:30:56.528Z,26.75
2019-03-24T06:33:25.047Z,26.80
2019-03-24T06:35:53.513Z,28.80
2019-03-24T06:38:22.010Z,30.35
2019-03-24T06:40:50.495Z,32.00
2019-03-24T06:43:19.081Z,31.68
2019-03-24T06:45:47.571Z,31.90
2019-03-24T06:48:16.018Z,35.60
2019-03-24T06:50:44.473Z,34.38
2019-03-24T06:53:12.909Z,30.85
2019-03-24T06:55:41.500Z,31.20
2019-03-24T06:58:09.998Z,29.45
2019-03-24T07:00:38.521Z,29.72
2019-03-24T07:03:07.044Z,33.35
2019-03-24T07:05:35.557Z,32.67
2019-03-24T07:08:04.100Z,32.95
2019-03-24T07:10:32.530Z,48.00
2019-03-24T07:13:01.029Z,47.93
2019-03-24T07:15:30.013Z,46.00
2019-03-24T07:18:08.187Z,50.00
2019-03-24T07:20:28.689Z,48.30
2019-03-24T07:22:57.197Z,50.50
2019-03-24T07:25:25.637Z,46.80
2019-03-24T07:27:56.746Z,46.15
2019-03-24T07:30:25.173Z,49.03
2019-03-24T07:32:53.630Z,49.55
2019-03-24T07:35:22.148Z,47.95
2019-03-24T07:37:50.604Z,47.13
2019-03-24T07:40:19.285Z,49.27
2019-03-24T07:42:47.824Z,47.45
2019-03-24T07:45:16.490Z,47.05
2019-03-24T07:47:44.947Z,45.58
2019-03-24T07:50:13.851Z,48.75
2019-03-24T07:52:42.276Z,47.23
2019-03-24T07:55:10.949Z,45.58
2019-03-24T07:57:39.497Z,46.42
2019-03-24T08:00:09.780Z,47.43
2019-03-24T08:02:38.267Z,47.00
2019-03-24T08:05:07.468Z,44.80
2019-03-24T08:07:36.002Z,45.05
2019-03-24T08:10:06.198Z,43.80
2019-03-24T08:12:34.707Z,45.85
2019-03-24T08:15:03.464Z,43.65
2019-03-24T08:17:31.908Z,43.20
2019-03-24T08:20:00.392Z,41.68
2019-03-24T08:22:28.933Z,46.40
2019-03-24T08:24:57.368Z,43.35
2019-03-24T08:27:25.817Z,43.05
2019-03-24T08:29:54.408Z,43.30
2019-03-24T08:32:22.901Z,42.03
2019-03-24T08:34:51.370Z,40.80
2019-03-24T08:37:19.870Z,40.60
2019-03-24T08:39:48.455Z,39.95
2019-03-24T08:42:16.925Z,38.42
2019-03-24T08:44:45.420Z,36.65
2019-03-24T08:47:13.923Z,37.78
2019-03-24T08:49:42.455Z,37.80
2019-03-24T08:52:10.963Z,36.70
2019-03-24T08:54:39.439Z,37.20
2019-03-24T08:57:07.977Z,39.05
2019-03-24T08:59:36.438Z,38.53
2019-03-24T09:02:05.023Z,41.15
2019-03-24T09:04:33.547Z,36.65
2019-03-24T09:07:02.020Z,35.25
2019-03-24T09:09:30.465Z,35.48
2019-03-24T09:11:58.922Z,33.48
2019-03-24T09:14:27.481Z,37.88
2019-03-24T09:16:55.949Z,35.88
2019-03-24T09:19:24.395Z,34.25
2019-03-24T09:21:52.863Z,35.28
2019-03-24T09:24:21.413Z,35.28
2019-03-24T09:26:49.827Z,36.23
2019-03-24T09:29:18.303Z,33.78
2019-03-24T09:31:46.825Z,35.63
2019-03-24T09:34:15.314Z,37.10
2019-03-24T09:36:43.797Z,34.03
2019-03-24T09:39:12.230Z,36.42
2019-03-24T09:41:40.802Z,35.25
2019-03-24T09:44:09.227Z,34.58
2019-03-24T09:46:37.664Z,33.60
2019-03-24T09:49:06.207Z,34.90
2019-03-24T09:51:34.637Z,31.85
2019-03-24T09:54:03.169Z,34.48
2019-03-24T09:56:31.668Z,31.87
2019-03-24T09:59:00.143Z,33.88
2019-03-24T10:01:28.571Z,33.45
2019-03-24T10:03:57.294Z,33.63
2019-03-24T10:06:25.746Z,33.20
2019-03-24T10:08:54.250Z,34.20
2019-03-24T10:11:22.703Z,32.53
2019-03-24T10:13:51.150Z,34.98
2019-03-24T10:16:19.601Z,33.05
2019-03-24T10:18:48.054Z,31.27
2019-03-24T10:21:16.498Z,31.17
2019-03-24T10:23:44.960Z,30.50
2019-03-24T10:26:13.402Z,31.30
2019-03-24T10:28:41.882Z,28.83
2019-03-24T10:31:10.319Z,27.37
2019-03-24T10:33:38.796Z,29.60
2019-03-24T10:36:07.220Z,30.32
2019-03-24T10:38:35.647Z,28.77
2019-03-24T10:41:04.261Z,29.05
2019-03-24T10:43:32.687Z,26.20
2019-03-24T10:46:02.404Z,27.87
2019-03-24T10:48:33.822Z,28.60
2019-03-24T10:51:01.062Z,28.10
2019-03-24T10:53:29.499Z,28.15
2019-03-24T10:55:58.077Z,29.50
2019-03-24T10:58:26.602Z,33.85
2019-03-24T11:00:55.034Z,32.03
2019-03-24T11:03:23.611Z,34.63
2019-03-24T11:05:52.111Z,32.13
2019-03-24T11:08:20.638Z,31.12
2019-03-24T11:10:49.116Z,29.90
2019-03-24T11:13:17.557Z,29.60
2019-03-24T11:15:46.068Z,28.12
2019-03-24T11:18:14.638Z,27.95
2019-03-24T11:20:43.142Z,27.17
2019-03-24T11:23:12.394Z,28.98
2019-03-24T11:25:40.889Z,28.07
2019-03-24T11:28:09.337Z,25.90
2019-03-24T11:30:37.821Z,25.50
2019-03-24T11:33:06.398Z,25.90
2019-03-24T11:35:34.846Z,29.95
2019-03-24T11:38:03.380Z,26.57
2019-03-24T11:40:31.901Z,25.85
2019-03-24T11:43:00.341Z,23.70
2019-03-24T11:45:28.895Z,26.50
2019-03-24T11:47:57.323Z,24.63
2019-03-24T11:50:25.783Z,25.80
2019-03-24T11:52:54.293Z,26.40
2019-03-24T11:55:22.774Z,25.40
2019-03-24T11:57:51.592Z,24.50
2019-03-24T12:00:23.240Z,25.23
2019-03-24T12:02:51.820Z,25.95
2019-03-24T12:05:20.316Z,24.87
2019-03-24T12:07:48.768Z,24.10
2019-03-24T12:10:17.386Z,25.15
2019-03-24T12:12:45.888Z,23.75
2019-03-24T12:15:14.485Z,25.02
2019-03-24T12:17:42.986Z,22.85
2019-03-24T12:20:11.865Z,26.20
2019-03-24T12:22:40.350Z,25.97
2019-03-24T12:25:08.915Z,26.33
2019-03-24T12:27:37.515Z,24.47
2019-03-24T12:30:08.683Z,25.40
2019-03-24T12:32:37.285Z,24.55
2019-03-24T12:35:07.588Z,25.00
2019-03-24T12:37:36.159Z,26.45
2019-03-24T12:40:07.262Z,25.00
2019-03-24T12:42:35.709Z,24.00
2019-03-24T12:45:08.272Z,25.80
2019-03-24T12:47:36.813Z,25.08
2019-03-24T12:50:09.495Z,23.40
2019-03-24T12:52:38.339Z,24.27
2019-03-24T12:55:07.406Z,23.60
2019-03-24T12:57:35.839Z,24.25
2019-03-24T13:00:06.947Z,23.85
2019-03-24T13:02:35.438Z,23.80
2019-03-24T13:05:05.816Z,23.50
2019-03-24T13:07:34.359Z,22.27
2019-03-24T13:10:03.167Z,20.27
2019-03-24T13:12:31.695Z,22.55
2019-03-24T13:15:00.422Z,20.65
2019-03-24T13:17:28.992Z,19.70
2019-03-24T13:19:57.915Z,15.72
2019-03-24T13:22:26.372Z,18.07
2019-03-24T13:24:54.839Z,15.60
2019-03-24T13:27:23.310Z,14.70
2019-03-24T13:29:51.703Z,11.53
2019-03-24T13:32:20.247Z,13.35
2019-03-24T13:34:48.683Z,12.82
2019-03-24T13:37:17.225Z,16.30
2019-03-24T13:39:45.669Z,14.05
2019-03-24T13:42:14.241Z,14.70
2019-03-24T13:44:42.837Z,16.27
2019-03-24T13:47:11.298Z,17.80
2019-03-24T13:49:39.820Z,15.38
2019-03-24T13:52:08.420Z,17.45
2019-03-24T13:54:37.008Z,18.92
2019-03-24T13:57:05.584Z,19.75
2019-03-24T13:59:34.217Z,20.90
2019-03-24T14:02:02.798Z,20.72
2019-03-24T14:04:31.305Z,17.60
2019-03-24T14:06:59.887Z,15.35
2019-03-24T14:09:28.316Z,16.00
2019-03-24T14:11:56.868Z,16.10
2019-03-24T14:14:25.303Z,14.20
2019-03-24T14:16:53.837Z,15.35
2019-03-24T14:19:22.550Z,12.80
2019-03-24T14:21:51.002Z,13.40
2019-03-24T14:24:19.518Z,17.15
2019-03-24T14:26:48.072Z,17.17
2019-03-24T14:29:16.526Z,19.20
2019-03-24T14:31:44.991Z,17.92
2019-03-24T14:34:13.459Z,17.00
2019-03-24T14:36:41.882Z,18.37
2019-03-24T14:39:10.499Z,19.27
2019-03-24T14:41:39.028Z,19.55
2019-03-24T14:44:07.434Z,19.90
2019-03-24T14:46:35.887Z,19.32
2019-03-24T14:49:04.469Z,21.40
2019-03-24T14:51:32.994Z,19.70
2019-03-24T14:54:01.500Z,19.95
2019-03-24T14:56:30.027Z,18.55
2019-03-24T14:58:58.527Z,20.90
2019-03-24T15:01:26.998Z,20.50
2019-03-24T15:03:55.552Z,21.40
2019-03-24T15:06:24.142Z,20.90
2019-03-24T15:08:52.596Z,22.62
2019-03-24T15:11:21.127Z,23.00
2019-03-24T15:13:49.587Z,22.17
2019-03-24T15:16:18.023Z,22.80
2019-03-24T15:18:46.494Z,20.72
2019-03-24T15:21:15.971Z,20.50
2019-03-24T15:23:44.518Z,20.48
2019-03-24T15:26:12.995Z,20.12
2019-03-24T15:28:41.426Z,18.60
2019-03-24T15:31:09.942Z,20.05
2019-03-24T15:33:38.523Z,20.65
2019-03-24T15:36:07.305Z,19.37
2019-03-24T15:38:35.832Z,18.75
2019-03-24T15:41:04.506Z,20.05
2019-03-24T15:43:32.991Z,19.70
2019-03-24T15:46:01.508Z,20.75
2019-03-24T15:48:30.005Z,19.98
2019-03-24T15:50:58.469Z,19.48
2019-03-24T15:53:26.897Z,22.02
2019-03-24T15:55:55.403Z,19.75
2019-03-24T15:58:23.868Z,19.65
2019-03-24T16:00:52.441Z,22.32
2019-03-24T16:03:20.950Z,24.50
2019-03-24T16:05:49.570Z,23.27
2019-03-24T16:08:18.180Z,22.80
2019-03-24T16:10:46.680Z,21.37
2019-03-24T16:13:15.154Z,22.17
2019-03-24T16:15:45.602Z,22.30
2019-03-24T16:18:14.328Z,22.85
2019-03-24T16:20:42.825Z,21.68
2019-03-24T16:23:11.334Z,21.02
2019-03-24T16:25:39.869Z,22.27
2019-03-24T16:28:08.438Z,23.35
2019-03-24T16:30:36.998Z,23.10
2019-03-24T16:33:05.954Z,26.85
2019-03-24T16:35:34.407Z,27.40
2019-03-24T16:38:02.938Z,29.32
2019-03-24T16:40:31.449Z,30.95
2019-03-24T16:42:59.915Z,31.50
2019-03-24T16:45:30.031Z,35.52
2019-03-24T16:47:58.535Z,34.90
2019-03-24T16:50:27.178Z,33.80
2019-03-24T16:52:55.688Z,36.75
2019-03-24T16:55:24.202Z,46.50
2019-03-24T16:57:53.211Z,40.40
2019-03-24T17:00:22.004Z,34.18
2019-03-24T17:02:50.507Z,37.00
2019-03-24T17:05:19.126Z,34.73
2019-03-24T17:07:47.728Z,35.40
2019-03-24T17:10:16.331Z,34.85
2019-03-24T17:12:44.931Z,33.08
2019-03-24T17:15:14.001Z,34.03
2019-03-24T17:17:42.512Z,33.18
2019-03-24T17:20:11.137Z,33.23
2019-03-24T17:22:39.564Z,35.35
2019-03-24T17:25:08.837Z,35.15
2019-03-24T17:27:37.371Z,33.73
2019-03-24T17:30:08.897Z,33.90
2019-03-24T17:32:37.447Z,32.05
2019-03-24T17:35:07.447Z,32.63
2019-03-24T17:37:35.940Z,32.23
2019-03-24T17:40:09.490Z,34.40
2019-03-24T17:42:38.081Z,32.38
2019-03-24T17:45:08.573Z,36.53
2019-03-24T17:47:37.116Z,35.58
2019-03-24T17:50:11.908Z,33.55
2019-03-24T17:52:39.745Z,34.48
2019-03-24T17:55:08.468Z,35.75
2019-03-24T17:57:37.035Z,33.33
2019-03-24T18:00:08.602Z,31.75
2019-03-24T18:02:37.247Z,39.33
2019-03-24T18:05:07.839Z,33.55
2019-03-24T18:07:36.289Z,31.40
2019-03-24T18:10:05.629Z,30.62
2019-03-24T18:12:34.160Z,30.40
2019-03-24T18:15:02.708Z,32.50
2019-03-24T18:17:31.270Z,31.62
2019-03-24T18:20:00.345Z,31.00
2019-03-24T18:22:28.881Z,32.60
2019-03-24T18:24:57.338Z,32.63
2019-03-24T18:27:25.957Z,32.98
2019-03-24T18:29:54.403Z,31.73
2019-03-24T18:32:23.289Z,32.20
2019-03-24T18:34:51.880Z,33.08
2019-03-24T18:37:20.520Z,31.07
2019-03-24T18:39:49.015Z,31.82
2019-03-24T18:42:17.521Z,30.80
2019-03-24T18:44:46.094Z,29.75
2019-03-24T18:47:14.623Z,29.70
2019-03-24T18:49:43.198Z,29.92
2019-03-24T18:52:22.060Z,29.70
2019-03-24T18:54:42.271Z,30.12
2019-03-24T18:57:10.782Z,28.47
2019-03-24T18:59:39.585Z,28.65
2019-03-24T19:02:08.052Z,28.87
2019-03-24T19:04:36.484Z,29.48
2019-03-24T19:07:05.091Z,30.43
2019-03-24T19:09:33.536Z,29.92
2019-03-24T19:12:02.012Z,31.23
2019-03-24T19:14:30.429Z,32.25
2019-03-24T19:16:58.996Z,33.80
2019-03-24T19:19:27.539Z,35.73
2019-03-24T19:21:56.129Z,34.65
2019-03-24T19:24:24.638Z,33.33
2019-03-24T19:26:53.058Z,31.85
2019-03-24T19:29:21.508Z,30.85
2019-03-24T19:31:49.963Z,30.77
2019-03-24T19:34:18.391Z,29.35
2019-03-24T19:36:47.833Z,33.05
2019-03-24T19:39:16.337Z,38.45
2019-03-24T19:41:44.923Z,30.80
2019-03-24T19:44:13.471Z,30.75
2019-03-24T19:46:41.924Z,29.92
2019-03-24T19:49:10.414Z,28.25
2019-03-24T19:51:39.002Z,31.80
2019-03-24T19:54:07.449Z,31.33
2019-03-24T19:56:35.962Z,34.78
2019-03-24T19:59:04.484Z,31.57
2019-03-24T20:01:32.964Z,33.65
2019-03-24T20:04:01.411Z,34.98
2019-03-24T20:06:29.847Z,33.15
2019-03-24T20:08:58.327Z,34.05
2019-03-24T20:11:27.071Z,34.45
2019-03-24T20:13:55.565Z,34.10
2019-03-24T20:16:24.065Z,32.65
2019-03-24T20:18:52.823Z,36.13
2019-03-24T20:21:21.254Z,35.00
2019-03-24T20:23:49.766Z,33.98
2019-03-24T20:26:18.300Z,41.58
2019-03-24T20:28:46.800Z,84.75
2019-03-24T20:31:15.382Z,102.15
2019-03-24T20:33:44.073Z,81.55
2019-03-24T20:36:12.494Z,68.17
2019-03-24T20:38:41.018Z,68.97
2019-03-24T20:41:09.531Z,52.78
2019-03-24T20:43:37.955Z,41.42
2019-03-24T20:46:06.454Z,56.68
2019-03-24T20:48:34.995Z,48.35
2019-03-24T20:51:03.513Z,42.03
2019-03-24T20:53:32.022Z,36.63
2019-03-24T20:56:00.526Z,34.70
2019-03-24T20:58:29.038Z,32.75
2019-03-24T21:00:57.552Z,32.95
2019-03-24T21:03:26.287Z,35.40
2019-03-24T21:05:56.420Z,33.40
2019-03-24T21:08:24.925Z,35.75
2019-03-24T21:10:53.497Z,37.38
2019-03-24T21:13:21.944Z,37.38
2019-03-24T21:15:51.930Z,36.42
2019-03-24T21:18:20.474Z,36.28
2019-03-24T21:20:49.142Z,37.38
2019-03-24T21:23:28.857Z,36.70
2019-03-24T21:25:47.829Z,36.80
2019-03-24T21:28:19.213Z,35.10
2019-03-24T21:30:47.740Z,38.67
2019-03-24T21:33:16.165Z,33.88
2019-03-24T21:35:44.711Z,35.03
2019-03-24T21:38:13.266Z,36.05
2019-03-24T21:40:41.771Z,33.33
2019-03-24T21:43:10.244Z,41.02
2019-03-24T21:45:38.801Z,37.35
2019-03-24T21:48:07.474Z,42.38
2019-03-24T21:50:35.890Z,42.80
2019-03-24T21:53:04.575Z,43.00
2019-03-24T21:55:33.066Z,40.60
2019-03-24T21:58:01.760Z,43.73
2019-03-24T22:00:34.785Z,42.20
2019-03-24T22:03:03.379Z,44.60
2019-03-24T22:05:31.814Z,47.80
2019-03-24T22:08:00.330Z,44.58
2019-03-24T22:10:28.856Z,44.45
2019-03-24T22:12:57.394Z,43.75
2019-03-24T22:15:25.889Z,43.05
2019-03-24T22:17:54.371Z,41.33
2019-03-24T22:20:22.868Z,41.25
2019-03-24T22:22:54.219Z,42.58
2019-03-24T22:25:22.681Z,40.78
2019-03-24T22:27:51.107Z,40.12
2019-03-24T22:30:19.911Z,41.58
2019-03-24T22:32:48.368Z,40.40
2019-03-24T22:35:16.975Z,40.40
2019-03-24T22:37:45.480Z,43.17
2019-03-24T22:40:14.185Z,43.50
2019-03-24T22:42:42.692Z,40.98
2019-03-24T22:45:11.577Z,43.17
2019-03-24T22:47:40.029Z,45.45
2019-03-24T22:50:09.095Z,40.88
2019-03-24T22:52:38.002Z,42.00
2019-03-24T22:55:08.527Z,42.03
2019-03-24T22:57:36.977Z,40.80
2019-03-24T23:00:12.147Z,43.78
2019-03-24T23:02:40.717Z,43.10
2019-03-24T23:05:09.304Z,42.25
2019-03-24T23:07:37.904Z,42.73
2019-03-24T23:10:06.411Z,43.92
2019-03-24T23:12:35.139Z,43.78
2019-03-24T23:15:05.039Z,41.85
2019-03-24T23:17:33.481Z,46.48
2019-03-24T23:20:01.960Z,43.98
2019-03-24T23:22:30.456Z,45.08
2019-03-24T23:24:58.946Z,43.23
2019-03-24T23:27:27.416Z,43.35
2019-03-24T23:29:55.837Z,43.30
2019-03-24T23:32:24.301Z,40.70
2019-03-24T23:34:52.741Z,43.00
2019-03-24T23:37:21.165Z,42.20
2019-03-24T23:39:49.634Z,44.80
2019-03-24T23:42:18.126Z,41.40
2019-03-24T23:44:46.574Z,42.50
2019-03-24T23:47:14.989Z,44.70
2019-03-24T23:49:43.482Z,43.85
2019-03-24T23:52:11.931Z,43.52
2019-03-24T23:54:40.347Z,45.17
2019-03-24T23:57:08.765Z,42.25
2019-03-24T23:59:37.220Z,42.23
